Airfield :
LOGIN :

Register | Disclaimer

   EN    FR    IT 

 










Legend :    VFR   Marginal VFR   IFR   Intensive IFR   Very Intensive IFR
Visi :
Ceiling :
>= 8 km
>= 3000ft
5 to 8 km
1000 to 3000 ft
1500m to 5 km
500 to 1000 ft
800 to 1500m
200 to 500 ft
< 800m
< 200 ft
Symbols :   Thunderstorms  Fog  Heavy snow  Heavy precipitations  Wind > 20 kt
SIGMETs :     Misc.  Thunderstorms  Icing  Turbulence  Mountain Waves  Volcanic Ashes






- Airport Elevation : 242 ft
- IATA code : DUB


EIDW - Dublin

CURRENT METAR :
  • 271200Z 30010KT 260V320 9999 -RA SCT015 SCT017 BKN024 12/08 Q1003 NOSIG

EXPIRED METARs :
  • 271130Z 33008KT 290V010 8000 -RA FEW010 SCT017 BKN020 11/09 Q1003 NOSIG
  • 271100Z 35010KT 9999 -RA FEW015 SCT020 BKN030 12/09 Q1004 NOSIG
  • 271030Z 28015KT 9999 -RA FEW018 SCT024 BKN037 12/08 Q1004 NOSIG
  • 271000Z 27014KT 9999 -RA FEW015 SCT031 BKN037 12/08 Q1004 NOSIG
  • 270930Z 27013KT 9999 FEW010 SCT033 BKN046 12/08 Q1004 NOSIG

TAF TAF EIDW
Valid from the 27 at 12:00 until the 28 at 12:00 UTC


271100Z 2712/2812 31013KT 9999 FEW015 BKN020
PROB40
TEMPO 2712/2715 30015G25KT -RA BKN014
BECMG 2718/2720 30008KT
BECMG 2809/2811 33010KT



MET'MAP, your aeronautical weather chart ! - Copyright ORBIFLY December 2007 - Disclaimer

ORBIFLY MET'MAP TEAM :

Programming & Development : Alexandra Zaïnal
Original concept : Baudouin d'Aumeries
Technical & hardware support : Manuel Goepfert
Assistance : Marc-Olivier Méhu




SOURCES & CREDITS :

   NOAA